sensor_id;sensor_type;location;lat;lon;timestamp;pressure;altitude;pressure_sealevel;temperature;humidity
17505;BME280;8870;50.950;11.762;2022-10-16T00:00:22;98098.59;;;15.76;100.00
17505;BME280;8870;50.950;11.762;2022-10-16T00:05:59;98090.63;;;15.68;100.00
17505;BME280;8870;50.950;11.762;2022-10-16T00:11:19;98089.16;;;15.65;100.00
17505;BME280;8870;50.950;11.762;2022-10-16T00:16:52;98089.78;;;15.61;100.00
17505;BME280;8870;50.950;11.762;2022-10-16T00:22:14;98096.25;;;15.60;100.00
17505;BME280;8870;50.950;11.762;2022-10-16T00:27:45;98101.25;;;15.56;100.00
17505;BME280;8870;50.950;11.762;2022-10-16T00:33:03;98086.81;;;15.55;100.00
17505;BME280;8870;50.950;11.762;2022-10-16T00:38:37;98082.63;;;15.53;100.00
17505;BME280;8870;50.950;11.762;2022-10-16T00:50:00;98064.19;;;15.41;100.00
17505;BME280;8870;50.950;11.762;2022-10-16T00:55:35;98076.91;;;15.34;100.00
17505;BME280;8870;50.950;11.762;2022-10-16T01:00:53;98091.25;;;15.28;100.00
17505;BME280;8870;50.950;11.762;2022-10-16T01:06:29;98084.97;;;15.21;100.00
17505;BME280;8870;50.950;11.762;2022-10-16T01:12:00;98102.47;;;15.18;100.00
17505;BME280;8870;50.950;11.762;2022-10-16T01:17:40;98106.44;;;15.16;100.00
17505;BME280;8870;50.950;11.762;2022-10-16T01:23:06;98110.78;;;15.10;100.00
17505;BME280;8870;50.950;11.762;2022-10-16T01:28:44;98114.72;;;15.07;100.00
17505;BME280;8870;50.950;11.762;2022-10-16T01:34:15;98121.97;;;15.00;100.00
17505;BME280;8870;50.950;11.762;2022-10-16T01:39:48;98113.38;;;14.97;100.00
17505;BME280;8870;50.950;11.762;2022-10-16T01:45:24;98114.84;;;14.92;100.00
17505;BME280;8870;50.950;11.762;2022-10-16T01:50:44;98113.97;;;14.92;100.00
17505;BME280;8870;50.950;11.762;2022-10-16T01:56:21;98103.94;;;14.86;100.00
17505;BME280;8870;50.950;11.762;2022-10-16T02:01:47;98108.31;;;14.87;100.00
17505;BME280;8870;50.950;11.762;2022-10-16T02:07:19;98102.63;;;14.82;100.00
17505;BME280;8870;50.950;11.762;2022-10-16T02:12:40;98123.44;;;14.74;100.00
17505;BME280;8870;50.950;11.762;2022-10-16T02:18:15;98133.81;;;14.71;100.00
17505;BME280;8870;50.950;11.762;2022-10-16T02:23:37;98132.69;;;14.65;100.00
17505;BME280;8870;50.950;11.762;2022-10-16T02:29:14;98139.75;;;14.59;100.00
17505;BME280;8870;50.950;11.762;2022-10-16T02:34:39;98155.56;;;14.56;100.00
17505;BME280;8870;50.950;11.762;2022-10-16T02:40:14;98146.91;;;14.45;100.00
17505;BME280;8870;50.950;11.762;2022-10-16T02:45:32;98138.72;;;14.39;100.00
17505;BME280;8870;50.950;11.762;2022-10-16T02:51:06;98133.44;;;14.30;100.00
17505;BME280;8870;50.950;11.762;2022-10-16T02:56:24;98134.19;;;14.24;100.00
17505;BME280;8870;50.950;11.762;2022-10-16T03:01:55;98137.88;;;14.16;100.00
17505;BME280;8870;50.950;11.762;2022-10-16T03:07:16;98147.31;;;14.06;100.00
17505;BME280;8870;50.950;11.762;2022-10-16T03:12:47;98147.69;;;14.02;100.00
17505;BME280;8870;50.950;11.762;2022-10-16T03:18:06;98147.91;;;14.01;100.00
17505;BME280;8870;50.950;11.762;2022-10-16T03:23:39;98161.06;;;14.04;100.00
17505;BME280;8870;50.950;11.762;2022-10-16T03:28:57;98156.94;;;14.08;100.00
17505;BME280;8870;50.950;11.762;2022-10-16T03:34:29;98145.72;;;14.11;100.00
17505;BME280;8870;50.950;11.762;2022-10-16T03:39:57;98139.94;;;14.14;100.00
17505;BME280;8870;50.950;11.762;2022-10-16T03:45:28;98144.50;;;14.14;100.00
17505;BME280;8870;50.950;11.762;2022-10-16T03:50:46;98141.97;;;14.12;100.00
17505;BME280;8870;50.950;11.762;2022-10-16T03:56:20;98125.06;;;14.10;100.00
17505;BME280;8870;50.950;11.762;2022-10-16T04:01:37;98150.69;;;14.08;100.00
17505;BME280;8870;50.950;11.762;2022-10-16T04:07:08;98132.97;;;14.05;100.00
17505;BME280;8870;50.950;11.762;2022-10-16T04:12:29;98157.72;;;14.02;100.00
17505;BME280;8870;50.950;11.762;2022-10-16T04:18:00;98176.84;;;14.00;100.00
17505;BME280;8870;50.950;11.762;2022-10-16T04:23:18;98177.84;;;13.99;100.00
17505;BME280;8870;50.950;11.762;2022-10-16T04:28:52;98188.06;;;13.97;100.00
17505;BME280;8870;50.950;11.762;2022-10-16T04:34:10;98198.50;;;14.00;100.00
17505;BME280;8870;50.950;11.762;2022-10-16T04:39:42;98203.56;;;14.03;100.00
17505;BME280;8870;50.950;11.762;2022-10-16T04:45:20;98206.09;;;14.05;100.00
17505;BME280;8870;50.950;11.762;2022-10-16T04:50:38;98220.25;;;14.07;100.00
17505;BME280;8870;50.950;11.762;2022-10-16T04:56:05;98221.94;;;14.08;100.00
17505;BME280;8870;50.950;11.762;2022-10-16T05:01:42;98217.19;;;14.10;100.00
17505;BME280;8870;50.950;11.762;2022-10-16T05:06:59;98233.06;;;14.13;100.00
17505;BME280;8870;50.950;11.762;2022-10-16T05:12:31;98242.66;;;14.16;100.00
17505;BME280;8870;50.950;11.762;2022-10-16T05:17:52;98249.13;;;14.15;100.00
17505;BME280;8870;50.950;11.762;2022-10-16T05:23:23;98244.28;;;14.10;100.00
17505;BME280;8870;50.950;11.762;2022-10-16T05:28:41;98244.63;;;14.07;100.00
17505;BME280;8870;50.950;11.762;2022-10-16T05:34:15;98251.75;;;14.08;100.00
17505;BME280;8870;50.950;11.762;2022-10-16T05:39:39;98246.16;;;14.10;100.00
17505;BME280;8870;50.950;11.762;2022-10-16T05:45:11;98258.66;;;14.11;100.00
17505;BME280;8870;50.950;11.762;2022-10-16T05:50:32;98271.81;;;14.14;100.00
17505;BME280;8870;50.950;11.762;2022-10-16T05:56:04;98280.69;;;14.23;100.00
17505;BME280;8870;50.950;11.762;2022-10-16T06:01:22;98274.91;;;14.26;100.00
17505;BME280;8870;50.950;11.762;2022-10-16T06:06:58;98297.88;;;14.30;100.00
17505;BME280;8870;50.950;11.762;2022-10-16T06:12:16;98300.22;;;14.33;100.00
17505;BME280;8870;50.950;11.762;2022-10-16T06:17:46;98314.03;;;14.38;100.00
17505;BME280;8870;50.950;11.762;2022-10-16T06:23:07;98314.50;;;14.42;100.00
17505;BME280;8870;50.950;11.762;2022-10-16T06:28:39;98335.81;;;14.45;100.00
17505;BME280;8870;50.950;11.762;2022-10-16T06:33:58;98329.75;;;14.43;100.00
17505;BME280;8870;50.950;11.762;2022-10-16T06:39:35;98323.19;;;14.52;100.00
17505;BME280;8870;50.950;11.762;2022-10-16T06:45:07;98328.47;;;14.60;100.00
17505;BME280;8870;50.950;11.762;2022-10-16T06:50:26;98332.31;;;14.66;100.00
17505;BME280;8870;50.950;11.762;2022-10-16T06:56:06;98330.38;;;14.75;100.00
17505;BME280;8870;50.950;11.762;2022-10-16T07:01:25;98309.97;;;14.79;100.00
17505;BME280;8870;50.950;11.762;2022-10-16T07:06:56;98324.66;;;14.85;100.00
17505;BME280;8870;50.950;11.762;2022-10-16T07:12:19;98321.16;;;14.91;100.00
17505;BME280;8870;50.950;11.762;2022-10-16T07:17:50;98343.78;;;14.98;100.00
17505;BME280;8870;50.950;11.762;2022-10-16T07:23:08;98340.28;;;15.04;100.00
17505;BME280;8870;50.950;11.762;2022-10-16T07:28:42;98338.22;;;15.06;100.00
17505;BME280;8870;50.950;11.762;2022-10-16T07:34:00;98367.69;;;15.09;100.00
17505;BME280;8870;50.950;11.762;2022-10-16T07:39:31;98375.06;;;15.16;100.00
17505;BME280;8870;50.950;11.762;2022-10-16T07:45:06;98371.59;;;15.22;100.00
17505;BME280;8870;50.950;11.762;2022-10-16T07:50:24;98374.03;;;15.38;100.00
17505;BME280;8870;50.950;11.762;2022-10-16T07:55:49;98368.75;;;15.52;100.00
17505;BME280;8870;50.950;11.762;2022-10-16T08:01:17;98380.13;;;15.62;100.00
17505;BME280;8870;50.950;11.762;2022-10-16T08:06:37;98361.44;;;15.74;100.00
17505;BME280;8870;50.950;11.762;2022-10-16T08:12:08;98362.59;;;15.86;100.00
17505;BME280;8870;50.950;11.762;2022-10-16T08:17:29;98354.53;;;16.00;100.00
17505;BME280;8870;50.950;11.762;2022-10-16T08:23:01;98371.38;;;16.17;100.00
17505;BME280;8870;50.950;11.762;2022-10-16T08:28:22;98377.94;;;16.29;100.00
17505;BME280;8870;50.950;11.762;2022-10-16T08:33:57;98381.97;;;16.40;100.00
17505;BME280;8870;50.950;11.762;2022-10-16T08:39:16;98396.25;;;16.49;100.00
17505;BME280;8870;50.950;11.762;2022-10-16T08:45:14;98410.91;;;16.48;100.00
17505;BME280;8870;50.950;11.762;2022-10-16T08:50:40;98412.19;;;16.52;100.00
17505;BME280;8870;50.950;11.762;2022-10-16T08:56:11;98413.06;;;16.59;100.00
17505;BME280;8870;50.950;11.762;2022-10-16T09:01:37;98429.84;;;16.70;100.00
17505;BME280;8870;50.950;11.762;2022-10-16T09:07:15;98429.03;;;16.69;100.00
17505;BME280;8870;50.950;11.762;2022-10-16T09:12:39;98433.03;;;16.80;100.00
17505;BME280;8870;50.950;11.762;2022-10-16T09:18:16;98448.28;;;17.09;100.00
17505;BME280;8870;50.950;11.762;2022-10-16T09:23:44;98433.06;;;17.29;100.00
17505;BME280;8870;50.950;11.762;2022-10-16T09:29:17;98447.94;;;17.26;100.00
17505;BME280;8870;50.950;11.762;2022-10-16T09:34:43;98454.03;;;17.28;100.00
17505;BME280;8870;50.950;11.762;2022-10-16T09:40:28;98442.69;;;17.31;100.00
17505;BME280;8870;50.950;11.762;2022-10-16T09:46:01;98449.63;;;17.40;100.00
17505;BME280;8870;50.950;11.762;2022-10-16T09:51:21;98455.38;;;17.66;100.00
17505;BME280;8870;50.950;11.762;2022-10-16T09:57:04;98447.22;;;17.79;100.00
17505;BME280;8870;50.950;11.762;2022-10-16T10:02:28;98451.25;;;17.97;100.00
17505;BME280;8870;50.950;11.762;2022-10-16T10:08:03;98444.53;;;18.06;100.00
17505;BME280;8870;50.950;11.762;2022-10-16T10:13:25;98452.72;;;18.06;100.00
17505;BME280;8870;50.950;11.762;2022-10-16T10:18:58;98462.56;;;18.07;100.00
17505;BME280;8870;50.950;11.762;2022-10-16T10:24:18;98449.81;;;18.14;100.00
17505;BME280;8870;50.950;11.762;2022-10-16T10:29:57;98459.22;;;18.18;100.00
17505;BME280;8870;50.950;11.762;2022-10-16T10:35:22;98465.53;;;18.32;100.00
17505;BME280;8870;50.950;11.762;2022-10-16T10:41:07;98463.78;;;18.58;100.00
17505;BME280;8870;50.950;11.762;2022-10-16T10:46:35;98474.66;;;18.92;100.00
17505;BME280;8870;50.950;11.762;2022-10-16T10:52:22;98470.88;;;19.06;100.00
17505;BME280;8870;50.950;11.762;2022-10-16T10:58:00;98466.69;;;19.04;100.00
17505;BME280;8870;50.950;11.762;2022-10-16T11:03:53;98483.88;;;19.04;100.00
17505;BME280;8870;50.950;11.762;2022-10-16T11:09:17;98471.91;;;19.05;100.00
17505;BME280;8870;50.950;11.762;2022-10-16T11:14:55;98471.03;;;19.12;100.00
17505;BME280;8870;50.950;11.762;2022-10-16T11:20:19;98479.44;;;19.17;100.00
17505;BME280;8870;50.950;11.762;2022-10-16T11:25:54;98478.38;;;19.18;100.00
17505;BME280;8870;50.950;11.762;2022-10-16T11:31:17;98492.03;;;19.18;100.00
17505;BME280;8870;50.950;11.762;2022-10-16T11:36:57;98487.44;;;19.12;100.00
17505;BME280;8870;50.950;11.762;2022-10-16T11:42:22;98503.22;;;19.09;100.00
17505;BME280;8870;50.950;11.762;2022-10-16T11:48:02;98494.41;;;19.07;100.00
17505;BME280;8870;50.950;11.762;2022-10-16T11:53:35;98495.81;;;19.17;100.00
17505;BME280;8870;50.950;11.762;2022-10-16T11:59:16;98491.75;;;19.39;100.00
17505;BME280;8870;50.950;11.762;2022-10-16T12:04:41;98488.69;;;19.61;100.00
17505;BME280;8870;50.950;11.762;2022-10-16T12:10:24;98492.25;;;19.68;100.00
17505;BME280;8870;50.950;11.762;2022-10-16T12:15:50;98503.78;;;19.70;100.00
17505;BME280;8870;50.950;11.762;2022-10-16T12:21:30;98494.13;;;19.68;100.00
17505;BME280;8870;50.950;11.762;2022-10-16T12:26:52;98522.06;;;19.77;100.00
17505;BME280;8870;50.950;11.762;2022-10-16T12:32:30;98518.44;;;19.83;100.00
17505;BME280;8870;50.950;11.762;2022-10-16T12:38:05;98518.03;;;19.86;100.00
17505;BME280;8870;50.950;11.762;2022-10-16T12:43:40;98511.81;;;20.29;100.00
17505;BME280;8870;50.950;11.762;2022-10-16T12:49:06;98512.16;;;20.90;100.00
17505;BME280;8870;50.950;11.762;2022-10-16T12:54:38;98502.28;;;20.89;100.00
17505;BME280;8870;50.950;11.762;2022-10-16T13:00:08;98514.63;;;21.17;100.00
17505;BME280;8870;50.950;11.762;2022-10-16T13:05:48;98498.63;;;20.96;100.00
17505;BME280;8870;50.950;11.762;2022-10-16T13:11:19;98505.94;;;21.02;100.00
17505;BME280;8870;50.950;11.762;2022-10-16T13:17:04;98507.47;;;20.98;100.00
17505;BME280;8870;50.950;11.762;2022-10-16T13:22:32;98513.94;;;21.22;100.00
17505;BME280;8870;50.950;11.762;2022-10-16T13:28:11;98514.88;;;21.16;100.00
17505;BME280;8870;50.950;11.762;2022-10-16T13:33:35;98513.47;;;21.25;100.00
17505;BME280;8870;50.950;11.762;2022-10-16T13:39:12;98510.22;;;21.16;100.00
17505;BME280;8870;50.950;11.762;2022-10-16T13:44:47;98515.13;;;21.45;100.00
17505;BME280;8870;50.950;11.762;2022-10-16T13:50:11;98517.34;;;21.54;100.00
17505;BME280;8870;50.950;11.762;2022-10-16T13:55:43;98512.63;;;21.80;100.00
17505;BME280;8870;50.950;11.762;2022-10-16T14:01:02;98519.16;;;21.79;100.00
17505;BME280;8870;50.950;11.762;2022-10-16T14:06:41;98521.66;;;21.81;100.00
17505;BME280;8870;50.950;11.762;2022-10-16T14:12:02;98517.31;;;21.92;100.00
17505;BME280;8870;50.950;11.762;2022-10-16T14:17:43;98522.22;;;21.52;100.00
17505;BME280;8870;50.950;11.762;2022-10-16T14:23:20;98537.28;;;21.24;100.00
17505;BME280;8870;50.950;11.762;2022-10-16T14:29:11;98547.56;;;20.92;100.00
17505;BME280;8870;50.950;11.762;2022-10-16T14:34:32;98545.59;;;20.74;100.00
17505;BME280;8870;50.950;11.762;2022-10-16T14:40:14;98540.97;;;20.74;100.00
17505;BME280;8870;50.950;11.762;2022-10-16T14:45:34;98555.69;;;20.73;100.00
17505;BME280;8870;50.950;11.762;2022-10-16T14:51:09;98557.72;;;20.59;100.00
17505;BME280;8870;50.950;11.762;2022-10-16T14:56:40;98552.53;;;20.51;100.00
17505;BME280;8870;50.950;11.762;2022-10-16T15:02:20;98575.56;;;20.37;100.00
17505;BME280;8870;50.950;11.762;2022-10-16T15:07:40;98575.03;;;20.21;100.00
17505;BME280;8870;50.950;11.762;2022-10-16T15:13:16;98593.56;;;20.19;100.00
17505;BME280;8870;50.950;11.762;2022-10-16T15:18:34;98594.22;;;20.14;100.00
17505;BME280;8870;50.950;11.762;2022-10-16T15:24:09;98603.16;;;19.96;100.00
17505;BME280;8870;50.950;11.762;2022-10-16T15:29:31;98599.38;;;19.84;100.00
17505;BME280;8870;50.950;11.762;2022-10-16T15:35:03;98616.28;;;19.74;100.00
17505;BME280;8870;50.950;11.762;2022-10-16T15:40:29;98626.78;;;19.70;100.00
17505;BME280;8870;50.950;11.762;2022-10-16T15:46:04;98637.31;;;19.67;100.00
17505;BME280;8870;50.950;11.762;2022-10-16T15:51:23;98634.78;;;19.65;100.00
17505;BME280;8870;50.950;11.762;2022-10-16T15:56:56;98636.28;;;19.61;100.00
17505;BME280;8870;50.950;11.762;2022-10-16T16:02:16;98642.41;;;19.50;100.00
17505;BME280;8870;50.950;11.762;2022-10-16T16:07:48;98645.16;;;19.43;100.00
17505;BME280;8870;50.950;11.762;2022-10-16T16:13:07;98645.59;;;19.33;100.00
17505;BME280;8870;50.950;11.762;2022-10-16T16:18:41;98636.78;;;19.18;100.00
17505;BME280;8870;50.950;11.762;2022-10-16T16:23:59;98646.69;;;19.05;100.00
17505;BME280;8870;50.950;11.762;2022-10-16T16:29:30;98642.69;;;18.94;100.00
17505;BME280;8870;50.950;11.762;2022-10-16T16:34:50;98661.13;;;18.79;100.00
17505;BME280;8870;50.950;11.762;2022-10-16T16:40:22;98670.13;;;18.66;100.00
17505;BME280;8870;50.950;11.762;2022-10-16T16:45:54;98686.06;;;18.56;100.00
17505;BME280;8870;50.950;11.762;2022-10-16T16:51:16;98689.41;;;18.44;100.00
17505;BME280;8870;50.950;11.762;2022-10-16T16:56:47;98697.34;;;18.32;100.00
17505;BME280;8870;50.950;11.762;2022-10-16T17:02:12;98702.53;;;18.21;100.00
17505;BME280;8870;50.950;11.762;2022-10-16T17:07:33;98709.84;;;18.07;100.00
17505;BME280;8870;50.950;11.762;2022-10-16T17:13:05;98720.00;;;17.91;100.00
17505;BME280;8870;50.950;11.762;2022-10-16T17:18:24;98723.72;;;17.83;100.00
17505;BME280;8870;50.950;11.762;2022-10-16T17:23:59;98719.50;;;17.74;100.00
17505;BME280;8870;50.950;11.762;2022-10-16T17:29:17;98736.06;;;17.73;100.00
17505;BME280;8870;50.950;11.762;2022-10-16T17:34:49;98742.94;;;17.68;100.00
17505;BME280;8870;50.950;11.762;2022-10-16T17:40:18;98738.34;;;17.69;100.00
17505;BME280;8870;50.950;11.762;2022-10-16T17:45:50;98748.59;;;17.67;100.00
17505;BME280;8870;50.950;11.762;2022-10-16T17:51:10;98754.81;;;17.61;100.00
17505;BME280;8870;50.950;11.762;2022-10-16T17:56:44;98758.78;;;17.58;100.00
17505;BME280;8870;50.950;11.762;2022-10-16T18:02:02;98766.31;;;17.56;100.00
17505;BME280;8870;50.950;11.762;2022-10-16T18:07:35;98767.56;;;17.53;100.00
17505;BME280;8870;50.950;11.762;2022-10-16T18:12:57;98755.81;;;17.53;100.00
17505;BME280;8870;50.950;11.762;2022-10-16T18:18:30;98773.78;;;17.47;100.00
17505;BME280;8870;50.950;11.762;2022-10-16T18:23:48;98781.72;;;17.42;100.00
17505;BME280;8870;50.950;11.762;2022-10-16T18:29:23;98790.03;;;17.34;100.00
17505;BME280;8870;50.950;11.762;2022-10-16T18:34:42;98793.91;;;17.24;100.00
17505;BME280;8870;50.950;11.762;2022-10-16T18:40:13;98799.88;;;17.13;100.00
17505;BME280;8870;50.950;11.762;2022-10-16T18:45:34;98803.13;;;17.02;100.00
17505;BME280;8870;50.950;11.762;2022-10-16T18:51:09;98810.19;;;16.96;100.00
17505;BME280;8870;50.950;11.762;2022-10-16T18:56:29;98808.31;;;16.97;100.00
17505;BME280;8870;50.950;11.762;2022-10-16T19:02:03;98808.50;;;16.95;100.00
17505;BME280;8870;50.950;11.762;2022-10-16T19:07:22;98808.88;;;16.92;100.00
17505;BME280;8870;50.950;11.762;2022-10-16T19:12:53;98808.38;;;16.88;100.00
17505;BME280;8870;50.950;11.762;2022-10-16T19:18:19;98809.81;;;16.84;100.00
17505;BME280;8870;50.950;11.762;2022-10-16T19:23:53;98808.13;;;16.83;100.00
17505;BME280;8870;50.950;11.762;2022-10-16T19:29:11;98821.75;;;16.83;100.00
17505;BME280;8870;50.950;11.762;2022-10-16T19:34:32;98825.50;;;16.82;100.00
17505;BME280;8870;50.950;11.762;2022-10-16T19:40:04;98843.06;;;16.79;100.00
17505;BME280;8870;50.950;11.762;2022-10-16T19:45:35;98844.66;;;16.74;100.00
17505;BME280;8870;50.950;11.762;2022-10-16T19:50:56;98856.97;;;16.70;100.00
17505;BME280;8870;50.950;11.762;2022-10-16T19:56:28;98864.84;;;16.64;100.00
17505;BME280;8870;50.950;11.762;2022-10-16T20:01:47;98863.72;;;16.59;100.00
17505;BME280;8870;50.950;11.762;2022-10-16T20:07:20;98859.88;;;16.53;100.00
17505;BME280;8870;50.950;11.762;2022-10-16T20:12:42;98864.69;;;16.51;100.00
17505;BME280;8870;50.950;11.762;2022-10-16T20:18:13;98852.69;;;16.45;100.00
17505;BME280;8870;50.950;11.762;2022-10-16T20:23:35;98858.78;;;16.32;100.00
17505;BME280;8870;50.950;11.762;2022-10-16T20:29:12;98871.69;;;16.30;100.00
17505;BME280;8870;50.950;11.762;2022-10-16T20:34:30;98873.28;;;16.25;100.00
17505;BME280;8870;50.950;11.762;2022-10-16T20:40:09;98889.59;;;16.25;100.00
17505;BME280;8870;50.950;11.762;2022-10-16T20:45:27;98897.50;;;16.20;100.00
17505;BME280;8870;50.950;11.762;2022-10-16T20:50:58;98892.41;;;16.16;100.00
17505;BME280;8870;50.950;11.762;2022-10-16T20:56:19;98896.53;;;16.12;100.00
17505;BME280;8870;50.950;11.762;2022-10-16T21:01:51;98906.94;;;16.09;100.00
17505;BME280;8870;50.950;11.762;2022-10-16T21:07:09;98897.53;;;15.96;100.00
17505;BME280;8870;50.950;11.762;2022-10-16T21:12:43;98893.22;;;15.87;100.00
17505;BME280;8870;50.950;11.762;2022-10-16T21:18:02;98901.91;;;15.82;100.00
17505;BME280;8870;50.950;11.762;2022-10-16T21:23:34;98906.00;;;15.78;100.00
17505;BME280;8870;50.950;11.762;2022-10-16T21:28:56;98910.59;;;15.78;100.00
17505;BME280;8870;50.950;11.762;2022-10-16T21:34:27;98914.81;;;15.80;100.00
17505;BME280;8870;50.950;11.762;2022-10-16T21:39:45;98911.06;;;15.81;100.00
17505;BME280;8870;50.950;11.762;2022-10-16T21:45:20;98916.19;;;15.84;100.00
17505;BME280;8870;50.950;11.762;2022-10-16T21:50:45;98917.34;;;15.82;100.00
17505;BME280;8870;50.950;11.762;2022-10-16T21:56:17;98916.03;;;15.78;100.00
17505;BME280;8870;50.950;11.762;2022-10-16T22:01:38;98920.78;;;15.76;100.00
17505;BME280;8870;50.950;11.762;2022-10-16T22:07:10;98924.34;;;15.76;100.00
17505;BME280;8870;50.950;11.762;2022-10-16T22:12:28;98921.47;;;15.78;100.00
17505;BME280;8870;50.950;11.762;2022-10-16T22:18:03;98918.75;;;15.78;100.00
17505;BME280;8870;50.950;11.762;2022-10-16T22:23:21;98908.72;;;15.78;100.00
17505;BME280;8870;50.950;11.762;2022-10-16T22:28:54;98908.03;;;15.76;100.00
17505;BME280;8870;50.950;11.762;2022-10-16T22:34:15;98895.78;;;15.80;100.00
17505;BME280;8870;50.950;11.762;2022-10-16T22:39:49;98903.28;;;15.78;100.00
17505;BME280;8870;50.950;11.762;2022-10-16T22:45:09;98908.03;;;15.76;100.00
17505;BME280;8870;50.950;11.762;2022-10-16T22:50:43;98914.34;;;15.77;100.00
17505;BME280;8870;50.950;11.762;2022-10-16T22:56:01;98910.41;;;15.79;100.00
17505;BME280;8870;50.950;11.762;2022-10-16T23:01:36;98899.38;;;15.81;100.00
17505;BME280;8870;50.950;11.762;2022-10-16T23:06:57;98907.88;;;15.78;100.00
17505;BME280;8870;50.950;11.762;2022-10-16T23:12:28;98895.75;;;15.65;100.00
17505;BME280;8870;50.950;11.762;2022-10-16T23:17:46;98896.25;;;15.46;100.00
17505;BME280;8870;50.950;11.762;2022-10-16T23:23:21;98888.16;;;15.37;100.00
17505;BME280;8870;50.950;11.762;2022-10-16T23:28:40;98881.41;;;15.33;100.00
17505;BME280;8870;50.950;11.762;2022-10-16T23:34:11;98896.38;;;15.29;100.00
17505;BME280;8870;50.950;11.762;2022-10-16T23:39:39;98896.38;;;15.29;100.00
17505;BME280;8870;50.950;11.762;2022-10-16T23:45:10;98896.56;;;15.28;100.00
17505;BME280;8870;50.950;11.762;2022-10-16T23:50:28;98908.44;;;15.27;100.00
17505;BME280;8870;50.950;11.762;2022-10-16T23:56:02;98911.31;;;15.25;100.00
